Time;durP1;ratioP1;P1;durP2;ratioP2;P2;SDS_P1;SDS_P2;PMS_P1;PMS_P2;Temp;Humidity;BMP_temperature;BMP_pressure;BME280_temperature;BME280_humidity;BME280_pressure;Samples;Min_cycle;Max_cycle;Signal;HPM_P1;HPM_P2
2022/06/14 00:02:55;;;;;;;5.70;1.90;;;12.10;99.90;;;;;;5068496;28;20664;-82
2022/06/14 00:05:21;;;;;;;4.73;2.30;;;12.10;99.90;;;;;;5068750;28;20419;-82
2022/06/14 00:07:46;;;;;;;5.53;2.60;;;12.10;99.90;;;;;;5068298;28;20602;-81
2022/06/14 00:10:12;;;;;;;6.00;2.70;;;12.10;99.90;;;;;;5068826;28;20458;-82
2022/06/14 00:12:38;;;;;;;6.60;2.43;;;12.10;99.90;;;;;;5067393;28;20173;-81
2022/06/14 00:15:05;;;;;;;5.47;2.37;;;12.00;99.90;;;;;;5058522;28;20424;-82
2022/06/14 00:17:31;;;;;;;6.60;2.20;;;12.00;99.90;;;;;;5048266;28;20268;-81
2022/06/14 00:19:57;;;;;;;8.70;3.10;;;12.00;99.90;;;;;;5048659;28;20888;-82
2022/06/14 00:22:22;;;;;;;11.63;2.80;;;12.00;99.90;;;;;;5048653;28;20411;-83
2022/06/14 00:24:48;;;;;;;6.80;2.97;;;12.00;99.90;;;;;;5048265;28;20244;-81
2022/06/14 00:27:14;;;;;;;12.80;2.90;;;12.00;99.90;;;;;;5048441;28;20205;-82
2022/06/14 00:29:39;;;;;;;4.87;2.63;;;12.00;99.90;;;;;;5048171;28;20514;-82
2022/06/14 00:32:05;;;;;;;5.13;2.47;;;12.00;99.90;;;;;;5048369;28;20224;-82
2022/06/14 00:34:31;;;;;;;7.53;1.87;;;12.10;99.90;;;;;;5048319;28;20177;-81
2022/06/14 00:36:57;;;;;;;3.73;2.23;;;12.10;99.90;;;;;;5048261;28;20181;-82
2022/06/14 00:39:22;;;;;;;7.93;2.50;;;12.10;99.90;;;;;;5048177;28;20178;-82
2022/06/14 00:41:54;;;;;;;3.73;2.03;;;12.00;99.90;;;;;;5048513;28;20200;-82
2022/06/14 00:44:26;;;;;;;7.77;2.73;;;12.00;99.90;;;;;;5048085;28;20251;-82
2022/06/14 00:47:03;;;;;;;6.10;2.27;;;11.90;99.90;;;;;;5048455;28;20430;-82
2022/06/14 00:49:31;;;;;;;8.93;2.60;;;11.90;99.90;;;;;;5048253;28;20397;-82
2022/06/14 00:52:18;;;;;;;11.73;2.73;;;11.80;99.90;;;;;;5054148;28;20416;-82
2022/06/14 00:54:47;;;;;;;3.60;1.90;;;11.80;99.90;;;;;;5068166;28;20403;-82
2022/06/14 00:57:22;;;;;;;4.90;2.10;;;11.80;99.90;;;;;;5068180;28;20438;-81
2022/06/14 00:59:53;;;;;;;24.27;2.70;;;11.80;99.90;;;;;;5068282;28;20408;-82
2022/06/14 01:02:31;;;;;;;9.23;2.17;;;11.80;99.90;;;;;;5068155;28;20424;-81
2022/06/14 01:05:00;;;;;;;3.27;2.00;;;11.70;99.90;;;;;;5068443;28;20521;-82
2022/06/14 01:07:37;;;;;;;6.20;2.70;;;11.70;99.90;;;;;;5068062;28;20431;-82
2022/06/14 01:10:12;;;;;;;4.73;2.40;;;11.70;99.90;;;;;;5068084;28;20947;-82
2022/06/14 01:12:43;;;;;;;3.80;2.07;;;11.60;99.90;;;;;;5067102;28;20422;-82
2022/06/14 01:15:24;;;;;;;3.80;2.10;;;11.50;99.90;;;;;;5057253;28;20821;-82
2022/06/14 01:18:04;;;;;;;4.50;2.07;;;11.40;99.90;;;;;;5047544;28;20526;-81
2022/06/14 01:20:30;;;;;;;5.40;2.90;;;11.30;99.90;;;;;;5048345;28;20396;-82
2022/06/14 01:22:56;;;;;;;5.63;2.93;;;11.40;99.90;;;;;;5047406;28;20526;-82
2022/06/14 01:25:24;;;;;;;8.90;2.90;;;11.30;99.90;;;;;;5047898;28;20568;-82
2022/06/14 01:27:52;;;;;;;5.97;3.20;;;11.30;99.90;;;;;;5047851;28;20404;-81
2022/06/14 01:30:21;;;;;;;6.23;2.23;;;11.30;99.90;;;;;;5050800;28;20459;-82
2022/06/14 01:32:58;;;;;;;8.03;2.83;;;11.30;99.90;;;;;;5051633;28;20495;-82
2022/06/14 01:35:28;;;;;;;5.63;2.63;;;11.30;99.90;;;;;;5051695;28;20408;-82
2022/06/14 01:37:57;;;;;;;6.47;2.87;;;11.30;99.90;;;;;;5051662;28;20393;-82
2022/06/14 01:40:33;;;;;;;7.90;2.93;;;11.30;99.90;;;;;;5051404;28;20530;-82
2022/06/14 01:43:28;;;;;;;9.60;2.70;;;11.30;99.90;;;;;;5051458;28;20450;-81
2022/06/14 01:46:20;;;;;;;8.90;3.20;;;11.30;99.90;;;;;;5051749;28;20423;-82
2022/06/14 01:48:49;;;;;;;8.43;2.93;;;11.30;99.90;;;;;;5046871;28;20515;-81
2022/06/14 01:54:16;;;;;;;37.80;3.60;;;11.20;99.90;;;;;;5071424;28;20394;-82
2022/06/14 01:57:14;;;;;;;5.97;2.00;;;11.10;99.90;;;;;;5071384;28;20492;-81
2022/06/14 01:59:49;;;;;;;5.93;3.60;;;11.20;99.90;;;;;;5029621;28;20804;-81
2022/06/14 02:02:27;;;;;;;7.43;3.13;;;11.20;99.90;;;;;;5071146;28;20425;-82
2022/06/14 02:05:21;;;;;;;4.10;2.10;;;11.10;99.90;;;;;;5071021;28;20533;-81
2022/06/14 02:07:47;;;;;;;7.90;3.67;;;11.00;99.90;;;;;;5070005;28;20424;-82
2022/06/14 02:10:19;;;;;;;5.37;2.90;;;11.00;99.90;;;;;;5070541;28;21230;-82
2022/06/14 02:12:56;;;;;;;4.73;2.90;;;10.90;99.90;;;;;;5070514;28;20177;-82
2022/06/14 02:15:25;;;;;;;7.70;2.87;;;10.90;99.90;;;;;;5057794;28;20427;-82
2022/06/14 02:18:10;;;;;;;5.73;2.30;;;10.90;99.90;;;;;;5050608;28;20416;-82
2022/06/14 02:20:58;;;;;;;9.80;3.50;;;10.90;99.90;;;;;;5050738;28;20710;-82
2022/06/14 02:23:25;;;;;;;8.03;2.40;;;10.80;99.90;;;;;;5050902;28;20452;-82
2022/06/14 02:26:06;;;;;;;4.20;2.50;;;10.80;99.90;;;;;;5050815;28;20892;-82
2022/06/14 02:29:03;;;;;;;6.20;2.00;;;10.80;99.90;;;;;;5050382;28;20771;-82
2022/06/14 02:31:52;;;;;;;6.07;2.87;;;10.70;99.90;;;;;;5050355;28;20416;-82
2022/06/14 02:34:25;;;;;;;6.53;2.57;;;10.70;99.90;;;;;;5050317;28;20409;-82
2022/06/14 02:36:57;;;;;;;5.23;2.60;;;10.70;99.90;;;;;;5050434;28;20442;-82
2022/06/14 02:39:34;;;;;;;7.90;3.80;;;10.70;99.90;;;;;;5050267;28;20401;-82
2022/06/14 02:42:03;;;;;;;4.87;2.20;;;10.60;99.90;;;;;;5050057;28;20902;-82
2022/06/14 02:44:32;;;;;;;14.03;3.00;;;10.70;99.90;;;;;;5050333;28;20468;-82
2022/06/14 02:47:17;;;;;;;4.93;2.20;;;10.70;99.90;;;;;;5050387;28;20882;-82
2022/06/14 02:49:45;;;;;;;7.17;4.17;;;10.60;99.90;;;;;;5050271;28;20420;-82
2022/06/14 02:52:26;;;;;;;5.03;3.03;;;10.70;99.90;;;;;;5058207;28;20518;-82
2022/06/14 02:55:02;;;;;;;8.83;3.17;;;10.60;99.90;;;;;;5070305;28;20697;-82
2022/06/14 02:57:41;;;;;;;6.43;2.83;;;10.60;99.90;;;;;;5070014;28;20442;-82
2022/06/14 03:00:24;;;;;;;8.07;3.60;;;10.60;99.90;;;;;;5070201;28;20479;-82
2022/06/14 03:03:16;;;;;;;7.47;2.50;;;10.50;99.90;;;;;;5070353;28;20966;-81
2022/06/14 03:06:01;;;;;;;11.80;2.97;;;10.50;99.90;;;;;;5055750;28;20883;-82
2022/06/14 03:08:38;;;;;;;16.60;3.20;;;10.40;99.90;;;;;;5069658;28;20396;-82
2022/06/14 03:11:12;;;;;;;6.53;2.70;;;10.40;99.90;;;;;;5070062;28;20433;-82
2022/06/14 03:14:10;;;;;;;12.63;3.37;;;10.40;99.90;;;;;;5069339;28;20757;-82
2022/06/14 03:16:54;;;;;;;5.53;3.00;;;10.40;99.90;;;;;;5015551;28;20425;-82
2022/06/14 03:19:27;;;;;;;7.00;2.53;;;10.40;99.90;;;;;;5029836;28;20416;-82
2022/06/14 03:22:05;;;;;;;6.03;3.30;;;10.30;99.90;;;;;;5029863;28;20410;-82
2022/06/14 03:24:39;;;;;;;7.23;3.00;;;10.30;99.90;;;;;;5029483;28;20459;-82
2022/06/14 03:27:17;;;;;;;3.93;2.20;;;10.30;99.90;;;;;;5029391;28;20413;-82
2022/06/14 03:30:01;;;;;;;18.00;2.77;;;10.30;99.90;;;;;;5029500;28;20397;-82
2022/06/14 03:32:45;;;;;;;11.20;4.07;;;10.30;99.90;;;;;;5029614;28;20401;-83
2022/06/14 03:35:34;;;;;;;5.70;2.90;;;10.40;99.90;;;;;;5029571;28;20527;-82
2022/06/14 03:38:06;;;;;;;5.43;2.50;;;10.40;99.90;;;;;;5029419;28;20489;-83
2022/06/14 03:40:32;;;;;;;7.70;2.83;;;10.40;99.90;;;;;;5029430;28;20440;-82
2022/06/14 03:43:00;;;;;;;7.50;3.37;;;10.40;99.90;;;;;;5028897;28;20461;-83
2022/06/14 03:45:35;;;;;;;4.57;2.80;;;10.40;99.90;;;;;;5042425;28;20193;-82
2022/06/14 03:48:04;;;;;;;6.30;2.57;;;10.30;99.90;;;;;;5048914;28;20810;-82
2022/06/14 03:50:56;;;;;;;6.27;3.10;;;10.30;99.90;;;;;;5048907;28;20413;-83
2022/06/14 03:53:47;;;;;;;8.13;2.67;;;10.30;99.90;;;;;;5066211;28;20826;-83
2022/06/14 03:56:47;;;;;;;10.40;2.63;;;10.20;99.90;;;;;;5068946;28;20802;-83
2022/06/14 03:59:50;;;;;;;15.37;2.80;;;10.30;99.90;;;;;;5000461;28;20918;-82
2022/06/14 04:02:52;;;;;;;6.10;2.97;;;10.30;99.90;;;;;;5068863;28;20966;-82
2022/06/14 04:05:39;;;;;;;6.03;2.80;;;10.30;99.90;;;;;;5068946;28;20419;-82
2022/06/14 04:08:23;;;;;;;6.93;3.30;;;10.30;99.90;;;;;;5068745;28;20431;-83
2022/06/14 04:11:36;;;;;;;12.00;3.50;;;10.30;99.90;;;;;;5068915;28;20437;-83
2022/06/14 04:14:11;;;;;;;8.13;3.10;;;10.40;99.90;;;;;;5066446;28;20492;-83
2022/06/14 04:16:52;;;;;;;12.33;3.27;;;10.40;99.90;;;;;;5048243;28;21049;-83
2022/06/14 04:19:45;;;;;;;6.43;3.17;;;10.50;99.90;;;;;;5048593;28;20400;-83
2022/06/14 04:22:24;;;;;;;15.87;3.43;;;10.50;99.90;;;;;;5048448;28;20412;-83
2022/06/14 04:24:58;;;;;;;8.50;3.17;;;10.60;99.90;;;;;;5048520;28;20485;-83
2022/06/14 04:27:53;;;;;;;5.70;2.87;;;10.60;99.90;;;;;;5048672;28;20422;-83
2022/06/14 04:30:39;;;;;;;7.17;2.90;;;10.70;99.90;;;;;;5048492;28;20404;-83
2022/06/14 04:33:28;;;;;;;6.23;3.80;;;10.80;99.90;;;;;;5048305;28;20412;-83
2022/06/14 04:36:02;;;;;;;11.77;3.83;;;10.80;99.90;;;;;;5048371;28;20420;-83
2022/06/14 04:38:40;;;;;;;10.33;3.37;;;10.90;99.90;;;;;;5048188;28;20423;-83
2022/06/14 04:41:08;;;;;;;7.60;3.50;;;10.90;99.90;;;;;;5048307;28;20783;-83
2022/06/14 04:43:56;;;;;;;8.93;3.40;;;11.00;99.90;;;;;;5047913;28;20464;-83
2022/06/14 04:47:00;;;;;;;8.83;3.37;;;11.00;99.90;;;;;;5029944;28;20757;-83
2022/06/14 04:49:40;;;;;;;8.87;3.80;;;11.10;99.90;;;;;;4963068;28;20447;-83
2022/06/14 04:52:15;;;;;;;5.67;3.30;;;11.20;99.90;;;;;;5043485;28;20492;-83
2022/06/14 04:55:14;;;;;;;7.53;4.13;;;11.30;99.90;;;;;;5068363;28;20744;-83
2022/06/14 04:57:45;;;;;;;5.30;2.60;;;11.30;99.90;;;;;;5050212;28;20986;-83
2022/06/14 05:00:16;;;;;;;7.03;3.87;;;11.50;99.90;;;;;;5068300;28;20406;-83
2022/06/14 05:02:53;;;;;;;7.20;2.40;;;11.60;99.90;;;;;;5068006;28;20454;-83
2022/06/14 05:05:38;;;;;;;7.97;3.20;;;11.60;99.90;;;;;;5072736;28;20480;-83
2022/06/14 05:08:16;;;;;;;8.40;3.67;;;11.70;99.90;;;;;;5071855;28;20411;-83
2022/06/14 05:11:24;;;;;;;9.17;3.50;;;11.80;99.90;;;;;;5074062;28;20407;-83
2022/06/14 05:13:56;;;;;;;6.83;3.40;;;11.80;99.90;;;;;;5048643;28;20496;-83
2022/06/14 05:16:36;;;;;;;6.07;3.77;;;11.90;99.90;;;;;;5076137;28;20445;-83
2022/06/14 05:19:15;;;;;;;7.40;3.33;;;12.00;99.90;;;;;;5076251;28;20401;-83
2022/06/14 05:21:49;;;;;;;16.33;3.60;;;12.00;99.90;;;;;;5076201;28;20427;-83
2022/06/14 05:24:16;;;;;;;7.30;2.80;;;12.10;99.90;;;;;;5076297;28;20446;-83
2022/06/14 05:27:03;;;;;;;8.90;3.80;;;12.20;99.90;;;;;;5075874;28;20486;-84
2022/06/14 05:30:06;;;;;;;5.40;2.80;;;12.30;99.90;;;;;;5076197;28;20402;-83
2022/06/14 05:32:52;;;;;;;9.23;3.50;;;12.30;99.90;;;;;;5076263;28;20445;-83
2022/06/14 05:35:32;;;;;;;7.77;3.30;;;12.40;99.90;;;;;;5075950;28;20544;-83
2022/06/14 05:38:19;;;;;;;6.03;3.00;;;12.50;99.90;;;;;;5075771;28;21222;-83
2022/06/14 05:41:07;;;;;;;7.33;4.20;;;12.60;99.90;;;;;;5075958;28;20421;-83
2022/06/14 05:44:03;;;;;;;7.83;3.10;;;12.60;99.90;;;;;;5067376;28;20546;-84
2022/06/14 05:47:01;;;;;;;5.57;3.53;;;12.70;99.90;;;;;;5019144;28;20435;-84
2022/06/14 05:49:33;;;;;;;7.63;2.90;;;12.80;99.90;;;;;;5020643;28;20800;-84
2022/06/14 05:52:05;;;;;;;8.40;3.40;;;12.90;99.90;;;;;;5035620;28;20424;-84
2022/06/14 05:54:36;;;;;;;5.70;3.27;;;12.90;99.90;;;;;;5035339;28;20417;-83
2022/06/14 05:57:15;;;;;;;8.33;2.57;;;13.00;99.90;;;;;;5035901;28;20449;-83
2022/06/14 05:59:45;;;;;;;5.37;3.17;;;13.10;99.90;;;;;;5035681;28;20413;-83
2022/06/14 06:02:30;;;;;;;5.97;3.07;;;13.20;99.90;;;;;;5034844;28;20477;-83
2022/06/14 06:05:17;;;;;;;10.27;3.20;;;13.30;99.90;;;;;;5035534;28;20451;-83
2022/06/14 06:08:14;;;;;;;7.77;3.60;;;13.40;99.90;;;;;;5034880;28;20509;-83
2022/06/14 06:10:43;;;;;;;9.43;4.20;;;13.50;99.90;;;;;;5034891;28;21039;-83
2022/06/14 06:13:28;;;;;;;5.03;3.30;;;13.60;99.90;;;;;;5035128;28;20435;-84
2022/06/14 06:16:12;;;;;;;5.17;3.60;;;13.70;99.90;;;;;;5051386;28;21034;-84
2022/06/14 06:18:40;;;;;;;8.63;3.70;;;13.90;99.90;;;;;;5054216;28;20799;-83
2022/06/14 06:21:06;;;;;;;7.27;3.53;;;14.00;99.90;;;;;;5055348;28;20800;-83
2022/06/14 06:23:41;;;;;;;6.80;3.03;;;14.10;99.90;;;;;;5054538;28;20451;-84
2022/06/14 06:26:11;;;;;;;6.20;3.23;;;14.30;99.90;;;;;;5054231;28;20158;-83
2022/06/14 06:28:42;;;;;;;7.90;3.73;;;14.40;99.90;;;;;;5041604;28;20940;-84
2022/06/14 06:31:17;;;;;;;9.13;3.20;;;14.60;99.90;;;;;;5029724;28;20410;-83
2022/06/14 06:33:47;;;;;;;8.10;3.23;;;14.80;99.90;;;;;;5039988;28;20411;-83
2022/06/14 06:36:34;;;;;;;7.57;2.77;;;14.90;99.90;;;;;;5040626;28;20417;-84
2022/06/14 06:39:19;;;;;;;10.40;3.70;;;15.00;99.90;;;;;;5030441;28;20772;-83
2022/06/14 06:41:54;;;;;;;5.50;3.57;;;15.20;99.90;;;;;;5030728;28;20409;-83
2022/06/14 06:44:33;;;;;;;6.77;2.83;;;15.20;99.90;;;;;;5034808;28;20562;-84
2022/06/14 06:47:18;;;;;;;4.23;2.80;;;15.30;99.10;;;;;;5050319;28;20416;-83
2022/06/14 06:50:01;;;;;;;9.23;2.97;;;15.40;99.20;;;;;;5050845;28;20830;-84
2022/06/14 06:52:39;;;;;;;4.53;2.50;;;15.40;99.40;;;;;;5060985;28;20418;-84
2022/06/14 06:55:14;;;;;;;10.13;3.73;;;15.40;99.80;;;;;;5070458;28;20765;-83
2022/06/14 06:57:43;;;;;;;8.40;2.23;;;15.50;99.40;;;;;;5070598;28;20876;-83
2022/06/14 07:00:13;;;;;;;12.70;3.23;;;15.60;98.80;;;;;;5052666;28;20542;-84
2022/06/14 07:02:53;;;;;;;6.60;3.30;;;15.80;98.80;;;;;;5070060;28;20891;-84
2022/06/14 07:05:19;;;;;;;10.00;3.77;;;16.00;98.50;;;;;;5051967;28;20438;-84
2022/06/14 07:07:49;;;;;;;10.47;3.67;;;16.20;98.00;;;;;;5069900;28;20439;-83
2022/06/14 07:10:34;;;;;;;7.90;3.23;;;16.40;97.80;;;;;;5070110;28;20926;-84
2022/06/14 07:13:33;;;;;;;6.83;3.10;;;16.60;96.90;;;;;;5049658;28;20474;-83
2022/06/14 07:16:13;;;;;;;8.90;3.00;;;16.80;97.00;;;;;;4996458;28;20442;-85
2022/06/14 07:18:51;;;;;;;7.60;2.80;;;17.10;95.80;;;;;;5012006;28;20935;-83
2022/06/14 07:21:32;;;;;;;6.63;3.20;;;17.30;95.80;;;;;;5030317;28;20420;-83
2022/06/14 07:24:08;;;;;;;5.70;2.47;;;17.60;95.00;;;;;;5029722;28;20595;-83
2022/06/14 07:26:37;;;;;;;8.90;3.00;;;17.90;94.00;;;;;;5028894;28;20451;-83
2022/06/14 07:29:03;;;;;;;9.63;3.47;;;18.40;93.00;;;;;;5029887;28;20417;-82
2022/06/14 07:31:48;;;;;;;9.27;3.33;;;18.60;94.00;;;;;;5029692;28;20539;-83
2022/06/14 07:34:15;;;;;;;5.20;2.40;;;19.10;93.50;;;;;;5028576;28;20186;-83
2022/06/14 07:36:43;;;;;;;9.87;2.30;;;19.40;93.40;;;;;;5041024;28;20487;-82
2022/06/14 07:39:24;;;;;;;6.23;2.70;;;19.90;91.00;;;;;;5049140;28;20755;-82
2022/06/14 07:42:04;;;;;;;11.40;2.73;;;21.00;88.90;;;;;;5049047;28;20418;-84
2022/06/14 07:44:36;;;;;;;6.93;2.43;;;21.80;84.20;;;;;;5048984;28;20479;-84
2022/06/14 07:47:16;;;;;;;5.70;2.40;;;23.10;83.70;;;;;;5049326;28;20418;-82
2022/06/14 07:50:07;;;;;;;6.13;2.83;;;23.90;79.60;;;;;;5126212;27;20518;-76
2022/06/14 07:52:48;;;;;;;3.47;1.92;;;24.40;77.90;;;;;;5103894;28;20661;-75
2022/06/14 07:55:24;;;;;;;8.65;2.28;;;24.40;73.90;;;;;;5085173;28;20275;-75
2022/06/14 07:57:58;;;;;;;6.03;2.63;;;24.90;73.60;;;;;;5083165;28;20190;-76
2022/06/14 08:03:23;;;;;;;7.57;2.80;;;25.90;68.10;;;;;;5084689;28;20221;-75
2022/06/14 08:05:51;;;;;;;10.68;2.78;;;26.30;68.90;;;;;;5084700;28;20176;-75
2022/06/14 08:08:25;;;;;;;8.00;3.03;;;25.90;70.40;;;;;;5084315;28;20208;-76
2022/06/14 08:10:56;;;;;;;3.75;2.08;;;26.90;68.70;;;;;;5084845;28;20153;-76
2022/06/14 08:13:29;;;;;;;6.68;2.35;;;26.50;66.50;;;;;;5084307;28;20893;-76
2022/06/14 08:15:59;;;;;;;8.10;2.75;;;26.50;67.10;;;;;;5083349;28;20187;-76
2022/06/14 08:18:31;;;;;;;7.75;2.60;;;26.90;65.40;;;;;;5082943;28;20188;-77
2022/06/14 08:21:04;;;;;;;5.72;1.80;;;27.80;62.70;;;;;;5084710;28;20180;-76
2022/06/14 08:23:42;;;;;;;4.32;2.60;;;28.10;60.10;;;;;;5083045;28;20208;-76
2022/06/14 08:26:11;;;;;;;10.27;3.45;;;26.90;62.10;;;;;;5084360;28;20183;-75
2022/06/14 08:28:52;;;;;;;7.60;2.55;;;26.90;62.90;;;;;;5084040;28;20207;-76
2022/06/14 08:31:32;;;;;;;11.13;2.72;;;26.90;62.40;;;;;;5084601;28;20211;-76
2022/06/14 08:34:19;;;;;;;5.40;2.35;;;26.20;64.60;;;;;;5084155;28;20200;-78
2022/06/14 08:36:59;;;;;;;4.82;2.22;;;26.20;64.70;;;;;;5079524;28;20248;-78
2022/06/14 08:39:34;;;;;;;6.18;2.30;;;25.90;66.80;;;;;;5073086;28;20176;-78
2022/06/14 08:42:08;;;;;;;4.00;2.22;;;26.40;64.30;;;;;;5064372;28;20211;-77
2022/06/14 08:44:57;;;;;;;6.68;1.67;;;26.60;63.40;;;;;;5068686;28;20259;-78
2022/06/14 08:47:56;;;;;;;5.90;2.53;;;25.90;63.60;;;;;;5078248;28;20196;-78
2022/06/14 08:51:11;;;;;;;10.23;2.60;;;25.10;65.10;;;;;;5084503;28;20218;-78
2022/06/14 08:54:00;;;;;;;10.85;1.98;;;26.10;64.70;;;;;;5082331;28;20208;-78
2022/06/14 08:56:29;;;;;;;9.48;2.28;;;25.40;64.90;;;;;;5054111;28;20302;-77
2022/06/14 08:59:23;;;;;;;5.25;2.00;;;25.80;66.40;;;;;;5083438;28;20187;-77
2022/06/14 09:01:54;;;;;;;6.28;2.72;;;25.80;65.10;;;;;;5070652;28;20180;-79
2022/06/14 09:04:42;;;;;;;4.55;2.10;;;25.50;64.20;;;;;;5070447;28;20246;-77
2022/06/14 09:07:47;;;;;;;4.32;1.98;;;26.30;64.10;;;;;;5068915;28;20246;-78
2022/06/14 09:10:22;;;;;;;4.88;2.22;;;26.20;67.80;;;;;;5068265;28;20206;-78
2022/06/14 09:13:16;;;;;;;5.32;2.10;;;26.00;65.50;;;;;;5068390;28;20679;-78
2022/06/14 09:16:03;;;;;;;4.43;2.20;;;26.40;63.10;;;;;;5070043;28;20189;-78
2022/06/14 09:18:55;;;;;;;10.45;2.55;;;26.50;65.00;;;;;;5068926;28;20215;-78
2022/06/14 09:21:33;;;;;;;2.63;1.60;;;26.30;66.10;;;;;;5069046;28;20181;-78
2022/06/14 09:24:24;;;;;;;5.25;2.47;;;26.70;62.60;;;;;;5062552;28;20205;-77
2022/06/14 09:27:20;;;;;;;4.22;1.67;;;26.40;64.70;;;;;;5040315;28;20538;-78
2022/06/14 09:30:10;;;;;;;3.45;1.70;;;26.60;63.60;;;;;;5062143;28;20267;-77
2022/06/14 09:33:09;;;;;;;6.95;2.28;;;26.20;62.80;;;;;;5058011;28;21019;-78
2022/06/14 09:35:53;;;;;;;7.28;1.98;;;26.30;65.90;;;;;;5057692;28;20230;-78
2022/06/14 09:38:41;;;;;;;5.88;1.52;;;25.90;63.00;;;;;;5048624;28;20177;-77
2022/06/14 09:41:25;;;;;;;3.25;1.80;;;25.00;61.00;;;;;;5050547;28;20318;-78
2022/06/14 09:44:07;;;;;;;5.18;2.10;;;25.10;63.10;;;;;;5048793;28;20291;-77
2022/06/14 09:47:01;;;;;;;13.90;1.98;;;25.10;62.00;;;;;;5064169;28;20239;-78
2022/06/14 09:49:56;;;;;;;4.97;1.55;;;25.30;62.30;;;;;;5050201;28;20672;-78
2022/06/14 09:52:31;;;;;;;2.53;1.15;;;25.70;58.50;;;;;;5058275;28;20210;-78
2022/06/14 09:55:33;;;;;;;10.75;2.58;;;25.90;58.10;;;;;;5069460;28;20215;-81
2022/06/14 09:58:01;;;;;;;4.18;1.75;;;26.30;58.90;;;;;;5061185;28;20231;-80
2022/06/14 10:00:49;;;;;;;3.92;0.95;;;26.10;57.40;;;;;;5048330;28;20296;-78
2022/06/14 10:03:41;;;;;;;4.65;2.25;;;25.90;55.20;;;;;;5049326;28;20262;-79
2022/06/14 10:06:45;;;;;;;4.78;1.60;;;25.40;58.20;;;;;;5049608;28;20186;-79
2022/06/14 10:09:11;;;;;;;3.28;1.80;;;25.70;59.00;;;;;;5049273;28;20203;-78
2022/06/14 10:11:42;;;;;;;3.88;1.80;;;25.80;60.10;;;;;;5048343;28;20170;-78
2022/06/14 10:14:40;;;;;;;3.05;1.77;;;25.60;60.10;;;;;;5049518;28;20238;-78
2022/06/14 10:17:32;;;;;;;2.65;1.75;;;25.10;63.80;;;;;;5032770;28;20555;-77
2022/06/14 10:20:19;;;;;;;3.42;2.03;;;25.10;63.80;;;;;;5049231;28;20209;-79
2022/06/14 10:23:16;;;;;;;7.65;2.28;;;25.30;59.40;;;;;;5049551;28;20192;-79
2022/06/14 10:29:21;;;;;;;6.60;2.10;;;25.00;60.40;;;;;;5049716;28;20582;-77
2022/06/14 10:32:20;;;;;;;3.37;1.67;;;24.60;63.40;;;;;;5049486;28;20720;-77
2022/06/14 10:35:07;;;;;;;8.57;2.10;;;24.50;64.30;;;;;;5047500;28;20512;-78
2022/06/14 10:37:38;;;;;;;3.23;1.83;;;24.50;65.70;;;;;;5066860;28;20419;-78
2022/06/14 10:40:29;;;;;;;7.50;2.23;;;24.60;64.00;;;;;;5068371;28;20431;-79
2022/06/14 10:43:26;;;;;;;7.97;1.83;;;24.60;61.90;;;;;;5067923;28;20442;-79
2022/06/14 10:45:57;;;;;;;3.37;1.77;;;24.30;62.80;;;;;;5068778;28;20433;-79
2022/06/14 10:48:41;;;;;;;4.57;1.53;;;24.40;64.00;;;;;;5067857;28;20562;-79
2022/06/14 10:51:24;;;;;;;9.23;1.83;;;24.40;65.00;;;;;;5069667;28;20817;-77
2022/06/14 10:54:05;;;;;;;5.30;1.83;;;24.60;63.00;;;;;;5049680;28;20808;-78
2022/06/14 10:56:31;;;;;;;4.97;1.53;;;24.20;62.60;;;;;;5065104;28;20473;-79
2022/06/14 10:59:35;;;;;;;4.30;1.37;;;24.20;61.30;;;;;;5075561;28;20440;-81
2022/06/14 11:02:41;;;;;;;3.03;1.70;;;23.90;61.50;;;;;;5095642;28;20398;-81
2022/06/14 11:05:22;;;;;;;4.37;1.67;;;23.80;62.00;;;;;;5098266;28;20442;-81
2022/06/14 11:08:05;;;;;;;4.60;1.90;;;23.90;66.70;;;;;;5098435;28;20423;-80
2022/06/14 11:10:55;;;;;;;2.90;1.80;;;23.90;63.30;;;;;;5097483;28;20494;-80
2022/06/14 11:13:53;;;;;;;6.10;1.50;;;24.20;65.30;;;;;;5098799;28;20521;-79
2022/06/14 11:16:18;;;;;;;2.20;1.20;;;24.40;65.00;;;;;;5080334;28;20494;-77
2022/06/14 11:19:05;;;;;;;6.30;1.53;;;24.50;65.50;;;;;;5075046;28;20865;-78
2022/06/14 11:21:54;;;;;;;2.60;1.20;;;24.50;64.00;;;;;;5067939;28;20185;-79
2022/06/14 11:24:45;;;;;;;6.57;2.23;;;24.70;60.60;;;;;;5068200;28;21115;-78
2022/06/14 11:27:48;;;;;;;3.70;1.20;;;24.70;59.50;;;;;;5047860;28;20416;-77
2022/06/14 11:30:20;;;;;;;6.00;1.30;;;24.70;59.10;;;;;;5012975;28;20435;-79
2022/06/14 11:32:51;;;;;;;6.70;2.00;;;24.70;60.70;;;;;;5047781;28;20585;-77
2022/06/14 11:35:31;;;;;;;2.40;1.20;;;24.80;59.20;;;;;;5047117;28;20415;-78
2022/06/14 11:38:36;;;;;;;8.47;1.47;;;24.70;59.70;;;;;;5066669;28;20432;-79
2022/06/14 11:41:07;;;;;;;7.80;2.20;;;24.70;58.00;;;;;;5067773;28;20427;-78
2022/06/14 11:43:42;;;;;;;3.63;1.40;;;24.60;59.40;;;;;;5067609;28;20976;-78
2022/06/14 11:46:14;;;;;;;3.83;1.50;;;24.50;59.50;;;;;;5067653;28;20856;-77
2022/06/14 11:48:52;;;;;;;3.03;1.70;;;24.50;62.60;;;;;;5067714;28;20477;-78
2022/06/14 11:51:32;;;;;;;3.87;1.17;;;24.70;59.40;;;;;;5065843;28;20422;-78
2022/06/14 11:54:19;;;;;;;14.03;1.77;;;24.80;59.70;;;;;;5047857;28;20838;-77
2022/06/14 11:56:56;;;;;;;8.10;1.90;;;24.90;58.10;;;;;;5066632;28;20414;-77
2022/06/14 11:59:39;;;;;;;6.90;1.53;;;25.00;56.90;;;;;;5067692;28;20410;-77
2022/06/14 12:02:32;;;;;;;2.70;1.67;;;24.90;56.90;;;;;;5067399;28;21169;-77
2022/06/14 12:05:13;;;;;;;6.33;1.40;;;24.50;59.20;;;;;;5067931;28;20410;-79
2022/06/14 12:07:41;;;;;;;3.23;1.03;;;24.40;59.20;;;;;;5067195;28;20433;-78
2022/06/14 12:10:25;;;;;;;2.30;1.23;;;24.60;58.20;;;;;;5068070;28;20410;-78
2022/06/14 12:12:59;;;;;;;2.30;1.13;;;24.80;56.80;;;;;;5067500;28;20426;-78
2022/06/14 12:16:15;;;;;;;3.67;1.90;;;25.10;58.60;;;;;;5067953;28;20844;-78
2022/06/14 12:18:48;;;;;;;5.47;1.70;;;24.80;59.00;;;;;;5036798;28;20406;-79
2022/06/14 12:21:33;;;;;;;2.77;1.43;;;25.00;55.70;;;;;;5085467;28;20419;-77
2022/06/14 12:24:05;;;;;;;3.63;1.10;;;25.20;58.20;;;;;;5086227;28;20495;-79
2022/06/14 12:26:43;;;;;;;11.13;1.87;;;25.40;56.90;;;;;;5084988;28;20414;-76
2022/06/14 12:29:22;;;;;;;4.13;1.40;;;25.30;56.80;;;;;;5082982;28;20470;-80
2022/06/14 12:32:03;;;;;;;1.87;1.07;;;25.40;55.70;;;;;;5067817;28;20417;-79
2022/06/14 12:34:49;;;;;;;4.43;1.77;;;25.50;58.00;;;;;;5065853;28;20422;-79
2022/06/14 12:37:36;;;;;;;3.07;1.10;;;25.20;55.20;;;;;;5054000;28;20486;-79
2022/06/14 12:40:20;;;;;;;8.57;1.77;;;25.30;56.50;;;;;;5053773;28;20426;-77
2022/06/14 12:43:01;;;;;;;3.40;1.33;;;25.30;57.90;;;;;;5050515;28;20431;-78
2022/06/14 12:45:33;;;;;;;5.03;1.50;;;25.50;57.70;;;;;;5048932;28;21281;-79
2022/06/14 12:48:23;;;;;;;8.03;1.67;;;25.50;58.20;;;;;;5049559;28;20478;-80
2022/06/14 12:50:54;;;;;;;2.37;1.10;;;25.70;56.90;;;;;;5051136;28;20422;-79
2022/06/14 12:53:43;;;;;;;4.43;1.40;;;25.90;55.70;;;;;;5049519;28;20810;-77
2022/06/14 12:56:20;;;;;;;5.37;1.20;;;25.80;57.10;;;;;;5065436;28;20419;-77
2022/06/14 12:59:07;;;;;;;2.87;1.47;;;25.80;54.90;;;;;;5071415;28;20450;-78
2022/06/14 13:01:45;;;;;;;2.67;1.70;;;25.70;55.80;;;;;;5070769;28;20513;-77
2022/06/14 13:04:19;;;;;;;6.67;1.70;;;25.80;57.00;;;;;;5069163;28;20449;-77
2022/06/14 13:07:18;;;;;;;5.97;1.90;;;25.80;59.20;;;;;;5070123;28;20798;-77
2022/06/14 13:09:52;;;;;;;4.07;1.57;;;25.90;58.80;;;;;;5070827;28;20492;-78
2022/06/14 13:12:37;;;;;;;2.80;1.30;;;25.80;55.70;;;;;;5070216;28;20417;-78
2022/06/14 13:15:17;;;;;;;6.50;2.17;;;26.00;59.90;;;;;;5069033;28;20526;-79
2022/06/14 13:18:09;;;;;;;4.80;1.67;;;26.20;55.70;;;;;;5070627;28;20442;-78
2022/06/14 13:20:53;;;;;;;3.40;1.43;;;26.20;58.50;;;;;;5054110;28;20418;-77
2022/06/14 13:23:33;;;;;;;5.17;1.40;;;26.30;56.60;;;;;;5069596;28;20422;-79
2022/06/14 13:26:12;;;;;;;3.83;1.60;;;26.50;53.70;;;;;;5068614;28;20423;-79
2022/06/14 13:28:57;;;;;;;4.70;2.03;;;26.30;56.40;;;;;;5069556;28;20516;-78
2022/06/14 13:31:41;;;;;;;3.97;1.60;;;26.30;57.80;;;;;;5070229;28;20486;-78
2022/06/14 13:34:11;;;;;;;11.13;1.87;;;26.50;60.70;;;;;;5068539;28;20469;-75
2022/06/14 13:36:57;;;;;;;5.03;1.43;;;25.80;55.40;;;;;;5069558;28;20423;-75
2022/06/14 13:39:58;;;;;;;7.60;2.23;;;25.80;57.40;;;;;;5067939;28;20434;-77
2022/06/14 13:42:37;;;;;;;3.73;1.20;;;26.10;57.30;;;;;;5030032;28;20434;-77
2022/06/14 13:45:22;;;;;;;4.77;1.63;;;26.00;57.70;;;;;;5067817;28;20431;-79
2022/06/14 13:47:59;;;;;;;4.00;1.70;;;25.70;58.10;;;;;;5069652;28;20522;-78
2022/06/14 13:50:39;;;;;;;2.73;1.40;;;25.80;59.40;;;;;;5070132;28;20414;-77
2022/06/14 13:53:28;;;;;;;11.90;1.73;;;26.00;59.70;;;;;;5052376;28;20514;-77
2022/06/14 13:56:11;;;;;;;2.87;1.37;;;25.80;59.10;;;;;;5061819;28;20472;-78
2022/06/14 13:58:49;;;;;;;4.00;1.67;;;26.20;57.80;;;;;;5069058;28;20418;-78
2022/06/14 14:02:05;;;;;;;6.07;1.70;;;26.40;56.00;;;;;;5069746;28;20414;-77
2022/06/14 14:04:53;;;;;;;3.90;1.77;;;26.20;57.50;;;;;;5026413;28;20971;-78